createdAt,value
2022-10-11T00:02:46.650Z,4.28
2022-10-11T00:05:49.987Z,4.23
2022-10-11T00:08:52.479Z,4.20
2022-10-11T00:11:56.352Z,4.35
2022-10-11T00:14:59.018Z,4.00
2022-10-11T00:18:05.266Z,4.53
2022-10-11T00:21:16.197Z,4.03
2022-10-11T00:24:19.209Z,4.00
2022-10-11T00:27:21.680Z,4.37
2022-10-11T00:30:26.516Z,4.05
2022-10-11T00:33:29.157Z,4.35
2022-10-11T00:36:32.288Z,4.70
2022-10-11T00:39:34.819Z,4.87
2022-10-11T00:42:37.646Z,4.68
2022-10-11T00:45:40.087Z,4.93
2022-10-11T00:48:46.992Z,4.32
2022-10-11T00:51:56.401Z,4.70
2022-10-11T00:55:02.774Z,4.20
2022-10-11T00:58:06.525Z,3.90
2022-10-11T01:01:09.594Z,4.20
2022-10-11T01:04:12.450Z,4.50
2022-10-11T01:07:16.545Z,4.60
2022-10-11T01:10:19.172Z,4.75
2022-10-11T01:13:40.911Z,5.05
2022-10-11T01:16:58.400Z,4.65
2022-10-11T01:20:26.495Z,4.30
2022-10-11T01:23:51.585Z,4.17
2022-10-11T01:27:14.590Z,4.65
2022-10-11T01:30:32.204Z,4.25
2022-10-11T01:33:41.981Z,4.80
2022-10-11T01:36:52.233Z,4.47
2022-10-11T01:40:00.926Z,4.53
2022-10-11T01:43:04.179Z,3.80
2022-10-11T01:46:08.891Z,5.43
2022-10-11T01:49:11.872Z,4.50
2022-10-11T01:52:14.787Z,4.57
2022-10-11T01:55:30.035Z,4.87
2022-10-11T01:58:54.685Z,4.55
2022-10-11T02:02:13.117Z,4.72
2022-10-11T02:05:50.849Z,5.43
2022-10-11T02:09:07.163Z,4.82
2022-10-11T02:12:13.101Z,5.90
2022-10-11T02:15:16.510Z,5.62
2022-10-11T02:18:23.276Z,5.57
2022-10-11T02:21:26.425Z,5.35
2022-10-11T02:24:32.283Z,5.72
2022-10-11T02:27:37.380Z,7.17
2022-10-11T02:30:41.851Z,7.53
2022-10-11T02:33:50.495Z,7.43
2022-10-11T02:37:00.622Z,7.53
2022-10-11T02:40:23.378Z,7.00
2022-10-11T02:43:49.790Z,6.17
2022-10-11T02:46:52.544Z,6.20
2022-10-11T02:49:55.513Z,6.70
2022-10-11T02:52:58.253Z,6.20
2022-10-11T02:56:01.170Z,5.97
2022-10-11T02:59:03.883Z,5.40
2022-10-11T03:02:06.875Z,5.07
2022-10-11T03:05:09.882Z,4.72
2022-10-11T03:08:14.714Z,5.25
2022-10-11T03:11:17.523Z,5.32
2022-10-11T03:14:20.372Z,4.37
2022-10-11T03:17:38.010Z,4.62
2022-10-11T03:20:40.893Z,5.07
2022-10-11T03:23:43.512Z,4.40
2022-10-11T03:26:46.408Z,4.70
2022-10-11T03:29:49.148Z,4.57
2022-10-11T03:32:52.027Z,4.97
2022-10-11T03:35:54.578Z,4.68
2022-10-11T03:38:57.819Z,5.03
2022-10-11T03:42:00.592Z,4.40
2022-10-11T03:45:08.464Z,4.17
2022-10-11T03:48:11.121Z,4.72
2022-10-11T03:51:15.381Z,5.03
2022-10-11T03:54:17.925Z,4.07
2022-10-11T03:57:20.803Z,4.57
2022-10-11T04:00:23.334Z,4.23
2022-10-11T04:03:26.425Z,4.72
2022-10-11T04:06:29.013Z,5.05
2022-10-11T04:09:32.282Z,4.10
2022-10-11T04:12:34.937Z,4.50
2022-10-11T04:15:38.387Z,4.37
2022-10-11T04:18:42.146Z,4.25
2022-10-11T04:21:45.021Z,4.78
2022-10-11T04:24:47.991Z,4.65
2022-10-11T04:27:51.045Z,4.50
2022-10-11T04:30:53.525Z,4.67
2022-10-11T04:33:57.245Z,4.37
2022-10-11T04:36:59.833Z,4.45
2022-10-11T04:40:03.008Z,3.95
2022-10-11T04:43:05.802Z,3.45
2022-10-11T04:46:09.925Z,3.77
2022-10-11T04:49:14.982Z,4.10
2022-10-11T04:52:21.065Z,5.18
2022-10-11T04:55:25.998Z,4.30
2022-10-11T04:58:30.195Z,4.82
2022-10-11T05:01:32.834Z,4.27
2022-10-11T05:04:35.963Z,4.00
2022-10-11T05:07:38.825Z,4.30
2022-10-11T05:10:41.709Z,4.43
2022-10-11T05:13:46.290Z,4.78
2022-10-11T05:16:49.349Z,4.03
2022-10-11T05:19:52.969Z,4.12
2022-10-11T05:22:55.823Z,4.12
2022-10-11T05:25:58.779Z,4.10
2022-10-11T05:29:01.758Z,3.78
2022-10-11T05:32:04.637Z,3.50
2022-10-11T05:35:07.971Z,3.70
2022-10-11T05:38:10.824Z,4.15
2022-10-11T05:41:15.098Z,3.60
2022-10-11T05:44:17.797Z,3.90
2022-10-11T05:47:20.782Z,3.60
2022-10-11T05:50:24.589Z,3.83
2022-10-11T05:53:27.563Z,3.15
2022-10-11T05:56:30.412Z,4.05
2022-10-11T05:59:35.397Z,3.83
2022-10-11T06:02:38.292Z,4.00
2022-10-11T06:05:42.001Z,4.00
2022-10-11T06:08:45.259Z,3.40
2022-10-11T06:11:48.288Z,3.47
2022-10-11T06:14:51.152Z,3.45
2022-10-11T06:17:54.569Z,3.70
2022-10-11T06:20:58.567Z,3.90
2022-10-11T06:24:02.888Z,4.03
2022-10-11T06:27:05.424Z,3.85
2022-10-11T06:30:09.627Z,4.40
2022-10-11T06:33:12.964Z,3.47
2022-10-11T06:36:17.103Z,3.50
2022-10-11T06:39:19.634Z,3.83
2022-10-11T06:42:22.514Z,3.70
2022-10-11T06:45:25.094Z,3.80
2022-10-11T06:48:28.071Z,3.70
2022-10-11T06:51:31.220Z,3.33
2022-10-11T06:54:34.217Z,3.37
2022-10-11T06:57:37.058Z,3.87
2022-10-11T07:00:40.249Z,3.58
2022-10-11T07:03:42.979Z,3.50
2022-10-11T07:06:45.889Z,3.33
2022-10-11T07:09:48.482Z,4.40
2022-10-11T07:12:51.361Z,3.30
2022-10-11T07:15:54.108Z,3.33
2022-10-11T07:19:00.771Z,3.60
2022-10-11T07:22:04.000Z,3.80
2022-10-11T07:25:07.610Z,2.95
2022-10-11T07:28:10.286Z,3.28
2022-10-11T07:31:19.529Z,3.50
2022-10-11T07:34:23.021Z,3.67
2022-10-11T07:37:26.433Z,3.65
2022-10-11T07:40:40.580Z,4.12
2022-10-11T07:43:43.774Z,3.30
2022-10-11T07:46:46.859Z,3.37
2022-10-11T07:49:49.887Z,3.30
2022-10-11T07:52:52.562Z,3.15
2022-10-11T07:55:55.590Z,3.28
2022-10-11T07:59:00.303Z,3.40
2022-10-11T08:02:03.380Z,3.75
2022-10-11T08:05:06.633Z,4.30
2022-10-11T08:08:09.491Z,3.85
2022-10-11T08:11:20.729Z,3.80
2022-10-11T08:14:23.508Z,4.37
2022-10-11T08:17:26.489Z,4.05
2022-10-11T08:20:31.212Z,4.27
2022-10-11T08:23:34.135Z,3.97
2022-10-11T08:26:36.855Z,4.47
2022-10-11T08:29:39.780Z,3.53
2022-10-11T08:32:42.640Z,4.18
2022-10-11T08:35:45.995Z,3.60
2022-10-11T08:38:48.816Z,4.03
2022-10-11T08:41:54.940Z,3.83
2022-10-11T08:45:16.693Z,3.65
2022-10-11T08:48:33.178Z,3.45
2022-10-11T08:51:40.422Z,4.00
2022-10-11T08:54:56.609Z,3.70
2022-10-11T08:57:59.508Z,3.70
2022-10-11T09:01:03.478Z,3.78
2022-10-11T09:04:06.296Z,3.67
2022-10-11T09:07:27.977Z,3.70
2022-10-11T09:10:55.271Z,3.78
2022-10-11T09:14:15.394Z,3.53
2022-10-11T09:17:52.132Z,3.25
2022-10-11T09:21:33.281Z,3.87
2022-10-11T09:25:27.398Z,3.13
2022-10-11T09:28:42.288Z,3.30
2022-10-11T09:31:49.016Z,3.70
2022-10-11T09:35:19.302Z,3.45
2022-10-11T09:38:28.093Z,3.45
2022-10-11T09:41:46.555Z,3.70
2022-10-11T09:44:51.239Z,3.80
2022-10-11T09:47:56.756Z,3.42
2022-10-11T09:51:03.307Z,4.10
2022-10-11T09:54:07.104Z,3.42
2022-10-11T09:57:31.098Z,3.67
2022-10-11T10:00:34.672Z,3.75
2022-10-11T10:03:42.868Z,3.80
2022-10-11T10:06:45.622Z,3.70
2022-10-11T10:09:49.821Z,4.68
2022-10-11T10:12:59.174Z,3.63
2022-10-11T10:16:04.406Z,4.20
2022-10-11T10:19:17.826Z,4.55
2022-10-11T10:22:27.737Z,5.40
2022-10-11T10:25:39.567Z,5.07
2022-10-11T10:29:09.681Z,5.27
2022-10-11T10:32:27.818Z,4.60
2022-10-11T10:35:57.017Z,4.65
2022-10-11T10:39:07.476Z,5.45
2022-10-11T10:42:15.173Z,4.50
2022-10-11T10:45:21.576Z,5.23
2022-10-11T10:49:01.747Z,5.40
2022-10-11T10:52:03.352Z,5.53
2022-10-11T10:55:37.013Z,5.22
2022-10-11T10:58:49.794Z,5.07
2022-10-11T11:02:21.475Z,5.17
2022-10-11T11:05:45.655Z,5.50
2022-10-11T11:09:12.845Z,5.55
2022-10-11T11:12:20.301Z,4.82
2022-10-11T11:15:38.471Z,6.12
2022-10-11T11:19:01.014Z,5.67
2022-10-11T11:22:36.367Z,6.25
2022-10-11T11:25:54.207Z,6.82
2022-10-11T11:29:18.109Z,6.45
2022-10-11T11:32:47.586Z,6.57
2022-10-11T11:35:54.213Z,6.53
2022-10-11T11:39:03.720Z,6.65
2022-10-11T11:42:14.384Z,6.62
2022-10-11T11:45:26.534Z,5.97
2022-10-11T11:48:29.597Z,6.87
2022-10-11T11:51:39.371Z,6.37
2022-10-11T11:54:49.494Z,7.03
2022-10-11T11:58:04.570Z,7.05
2022-10-11T12:01:30.927Z,7.40
2022-10-11T12:04:40.474Z,6.28
2022-10-11T12:07:56.257Z,5.93
2022-10-11T12:11:03.540Z,6.12
2022-10-11T12:14:35.130Z,6.40
2022-10-11T12:17:56.725Z,6.40
2022-10-11T12:21:15.918Z,6.28
2022-10-11T12:24:24.023Z,6.17
2022-10-11T12:27:46.104Z,6.18
2022-10-11T12:30:50.901Z,6.10
2022-10-11T12:34:15.272Z,5.82
2022-10-11T12:37:18.374Z,6.05
2022-10-11T12:40:36.642Z,5.37
2022-10-11T12:43:48.718Z,4.72
2022-10-11T12:46:51.596Z,4.95
2022-10-11T12:50:25.841Z,5.68
2022-10-11T12:54:21.600Z,6.12
2022-10-11T12:57:46.736Z,4.90
2022-10-11T13:00:52.492Z,4.85
2022-10-11T13:04:04.035Z,6.18
2022-10-11T13:07:23.586Z,5.95
2022-10-11T13:10:44.026Z,6.22
2022-10-11T13:13:58.875Z,5.97
2022-10-11T13:17:15.013Z,4.25
2022-10-11T13:20:17.991Z,4.97
2022-10-11T13:23:25.029Z,4.45
2022-10-11T13:26:29.805Z,4.05
2022-10-11T13:29:38.644Z,4.10
2022-10-11T13:32:43.101Z,4.15
2022-10-11T13:35:46.458Z,4.32
2022-10-11T13:39:00.216Z,4.28
2022-10-11T13:42:07.793Z,4.80
2022-10-11T13:45:13.317Z,4.60
2022-10-11T13:48:16.842Z,4.47
2022-10-11T13:51:32.615Z,4.95
2022-10-11T13:54:55.328Z,4.40
2022-10-11T13:57:59.147Z,4.57
2022-10-11T14:01:05.234Z,5.10
2022-10-11T14:04:10.505Z,4.90
2022-10-11T14:07:33.938Z,4.70
2022-10-11T14:10:37.720Z,5.07
2022-10-11T14:13:50.096Z,4.97
2022-10-11T14:17:13.766Z,5.23
2022-10-11T14:20:32.312Z,4.80
2022-10-11T14:23:36.045Z,4.78
2022-10-11T14:26:41.813Z,4.28
2022-10-11T14:29:55.613Z,4.90
2022-10-11T14:33:08.254Z,4.60
2022-10-11T14:36:12.518Z,4.93
2022-10-11T14:39:18.423Z,4.97
2022-10-11T14:42:21.243Z,4.95
2022-10-11T14:45:23.994Z,4.53
2022-10-11T14:48:50.465Z,5.00
2022-10-11T14:51:50.753Z,4.65
2022-10-11T14:55:02.194Z,6.40
2022-10-11T14:58:14.206Z,9.93
2022-10-11T15:01:17.877Z,6.05
2022-10-11T15:04:25.860Z,5.37
2022-10-11T15:07:30.650Z,5.07
2022-10-11T15:10:40.958Z,11.73
2022-10-11T15:13:44.189Z,8.30
2022-10-11T15:16:47.045Z,3.80
2022-10-11T15:19:51.775Z,5.63
2022-10-11T15:22:55.470Z,6.68
2022-10-11T15:25:58.388Z,4.32
2022-10-11T15:29:00.937Z,4.15
2022-10-11T15:32:03.911Z,4.40
2022-10-11T15:35:07.116Z,4.50
2022-10-11T15:38:19.997Z,4.75
2022-10-11T15:41:23.986Z,4.53
2022-10-11T15:44:26.978Z,6.03
2022-10-11T15:47:29.547Z,4.90
2022-10-11T15:50:35.308Z,4.90
2022-10-11T15:53:37.806Z,28.25
2022-10-11T15:56:40.694Z,7.30
2022-10-11T15:59:43.284Z,6.97
2022-10-11T16:02:46.162Z,8.10
2022-10-11T16:05:49.090Z,6.20
2022-10-11T16:08:51.686Z,7.07
2022-10-11T16:11:54.562Z,6.93
2022-10-11T16:14:57.152Z,6.10
2022-10-11T16:18:00.011Z,6.03
2022-10-11T16:21:06.987Z,5.60
2022-10-11T16:24:10.149Z,5.70
2022-10-11T16:27:16.536Z,5.87
2022-10-11T16:30:22.738Z,5.57
2022-10-11T16:33:25.501Z,12.02
2022-10-11T16:36:40.562Z,8.83
2022-10-11T16:39:44.306Z,6.78
2022-10-11T16:42:47.752Z,6.68
2022-10-11T16:45:57.498Z,6.18
2022-10-11T16:49:00.386Z,5.00
2022-10-11T16:52:04.052Z,5.57
2022-10-11T16:55:07.185Z,7.00
2022-10-11T16:58:10.269Z,7.57
2022-10-11T17:01:13.351Z,6.70
2022-10-11T17:04:16.117Z,5.50
2022-10-11T17:07:19.141Z,6.20
2022-10-11T17:10:39.361Z,5.35
2022-10-11T17:13:42.425Z,6.75
2022-10-11T17:16:45.577Z,7.22
2022-10-11T17:19:48.467Z,6.10
2022-10-11T17:22:51.740Z,5.77
2022-10-11T17:25:54.758Z,6.03
2022-10-11T17:28:58.989Z,6.57
2022-10-11T17:32:02.306Z,6.50
2022-10-11T17:35:05.275Z,18.42
2022-10-11T17:38:08.189Z,20.53
2022-10-11T17:41:11.612Z,16.42
2022-10-11T17:44:17.389Z,12.35
2022-10-11T17:47:19.886Z,10.43
2022-10-11T17:50:22.762Z,10.43
2022-10-11T17:53:25.446Z,10.83
2022-10-11T17:56:31.447Z,7.55
2022-10-11T17:59:37.762Z,7.93
2022-10-11T18:02:41.829Z,6.40
2022-10-11T18:05:44.959Z,6.35
2022-10-11T18:08:47.606Z,7.20
2022-10-11T18:11:51.132Z,7.10
2022-10-11T18:14:53.626Z,6.47
2022-10-11T18:17:59.716Z,6.75
2022-10-11T18:21:02.334Z,8.20
2022-10-11T18:24:16.665Z,8.43
2022-10-11T18:27:19.189Z,9.40
2022-10-11T18:30:22.415Z,10.68
2022-10-11T18:33:24.982Z,8.85
2022-10-11T18:36:30.146Z,9.48
2022-10-11T18:42:49.789Z,10.15
2022-10-11T18:45:52.376Z,10.65
2022-10-11T18:48:56.672Z,10.60
2022-10-11T18:51:59.213Z,12.15
2022-10-11T18:55:04.653Z,10.73
2022-10-11T18:58:07.617Z,10.45
2022-10-11T19:01:16.136Z,10.60
2022-10-11T19:04:19.868Z,11.00
2022-10-11T19:07:23.311Z,11.05
2022-10-11T19:10:26.043Z,10.43
2022-10-11T19:13:28.880Z,9.77
2022-10-11T19:16:31.520Z,10.05
2022-10-11T19:19:34.847Z,9.00
2022-10-11T19:22:37.431Z,10.48
2022-10-11T19:25:40.252Z,10.23
2022-10-11T19:28:43.299Z,11.15
2022-10-11T19:31:52.123Z,10.48
2022-10-11T19:34:54.624Z,8.70
2022-10-11T19:37:57.504Z,8.32
2022-10-11T19:41:01.066Z,9.80
2022-10-11T19:44:04.345Z,9.70
2022-10-11T19:47:07.089Z,14.02
2022-10-11T19:50:10.826Z,10.60
2022-10-11T19:53:13.571Z,9.52
2022-10-11T19:56:18.354Z,8.20
2022-10-11T19:59:21.541Z,8.05
2022-10-11T20:02:24.497Z,7.82
2022-10-11T20:05:27.693Z,7.70
2022-10-11T20:08:31.592Z,7.82
2022-10-11T20:11:34.430Z,9.40
2022-10-11T20:14:36.941Z,9.57
2022-10-11T20:17:48.761Z,9.10
2022-10-11T20:20:53.305Z,8.73
2022-10-11T20:24:01.419Z,8.15
2022-10-11T20:27:04.955Z,7.67
2022-10-11T20:30:08.347Z,7.87
2022-10-11T20:33:14.105Z,8.45
2022-10-11T20:36:19.531Z,8.05
2022-10-11T20:39:22.068Z,8.10
2022-10-11T20:42:28.986Z,7.80
2022-10-11T20:45:32.396Z,8.18
2022-10-11T20:48:36.652Z,7.85
2022-10-11T20:51:41.525Z,7.65
2022-10-11T20:54:44.343Z,7.68
2022-10-11T20:57:46.829Z,7.53
2022-10-11T21:00:49.857Z,7.45
2022-10-11T21:03:52.544Z,7.32
2022-10-11T21:06:55.347Z,7.20
2022-10-11T21:09:58.884Z,7.78
2022-10-11T21:13:02.238Z,7.27
2022-10-11T21:16:11.404Z,7.82
2022-10-11T21:19:15.333Z,7.62
2022-10-11T21:22:17.840Z,8.02
2022-10-11T21:25:20.991Z,7.57
2022-10-11T21:28:23.547Z,7.80
2022-10-11T21:31:31.064Z,8.35
2022-10-11T21:34:35.385Z,7.72
2022-10-11T21:37:38.229Z,7.07
2022-10-11T21:40:41.093Z,8.13
2022-10-11T21:43:44.162Z,7.37
2022-10-11T21:47:07.135Z,7.20
2022-10-11T21:50:09.993Z,8.07
2022-10-11T21:53:12.504Z,7.62
2022-10-11T21:56:16.263Z,7.93
2022-10-11T21:59:18.757Z,7.43
2022-10-11T22:02:21.600Z,6.90
2022-10-11T22:05:24.633Z,8.13
2022-10-11T22:08:27.185Z,8.93
2022-10-11T22:11:30.460Z,8.15
2022-10-11T22:14:32.968Z,7.90
2022-10-11T22:17:35.927Z,8.30
2022-10-11T22:20:38.703Z,9.07
2022-10-11T22:23:43.351Z,7.10
2022-10-11T22:26:46.013Z,8.45
2022-10-11T22:29:48.802Z,9.53
2022-10-11T22:32:51.939Z,8.05
2022-10-11T22:35:59.520Z,11.00
2022-10-11T22:39:08.041Z,8.90
2022-10-11T22:42:11.068Z,9.77
2022-10-11T22:45:13.628Z,9.40
2022-10-11T22:48:16.496Z,9.07
2022-10-11T22:51:19.144Z,9.75
2022-10-11T22:54:22.045Z,8.48
2022-10-11T22:57:24.726Z,9.93
2022-10-11T23:00:27.892Z,9.60
2022-10-11T23:03:30.627Z,9.50
2022-10-11T23:06:33.512Z,8.63
2022-10-11T23:09:36.221Z,9.70
2022-10-11T23:12:39.158Z,9.55
2022-10-11T23:15:41.749Z,8.77
2022-10-11T23:18:44.615Z,7.85
2022-10-11T23:21:47.152Z,7.82
2022-10-11T23:24:50.087Z,9.85
2022-10-11T23:27:52.953Z,7.85
2022-10-11T23:30:55.758Z,8.47
2022-10-11T23:33:58.272Z,11.88
2022-10-11T23:37:01.941Z,11.63
2022-10-11T23:40:05.289Z,10.88
2022-10-11T23:43:08.434Z,9.82
2022-10-11T23:46:10.906Z,10.63
2022-10-11T23:49:13.759Z,8.30
2022-10-11T23:52:16.257Z,6.70
2022-10-11T23:55:19.097Z,7.70
2022-10-11T23:58:22.058Z,8.85
